createdAt,value
2023-01-17T00:02:06.778Z,0.30
2023-01-17T00:04:52.673Z,0.38
2023-01-17T00:07:40.024Z,0.65
2023-01-17T00:10:12.168Z,0.40
2023-01-17T00:12:40.071Z,0.35
2023-01-17T00:15:09.402Z,0.70
2023-01-17T00:17:37.177Z,0.98
2023-01-17T00:20:31.332Z,0.60
2023-01-17T00:23:16.564Z,0.50
2023-01-17T00:26:04.184Z,0.40
2023-01-17T00:28:32.906Z,0.57
2023-01-17T00:31:00.184Z,0.50
2023-01-17T00:33:27.615Z,0.60
2023-01-17T00:35:54.610Z,0.40
2023-01-17T00:38:23.034Z,0.60
2023-01-17T00:40:51.059Z,0.80
2023-01-17T00:43:38.462Z,0.52
2023-01-17T00:46:25.070Z,0.52
2023-01-17T00:49:10.748Z,0.93
2023-01-17T00:51:56.694Z,0.40
2023-01-17T00:54:42.184Z,0.60
2023-01-17T00:57:29.151Z,0.57
2023-01-17T01:00:14.318Z,0.43
2023-01-17T01:02:59.920Z,0.40
2023-01-17T01:05:45.205Z,0.73
2023-01-17T01:08:39.183Z,0.45
2023-01-17T01:11:26.289Z,0.40
2023-01-17T01:14:13.872Z,0.52
2023-01-17T01:16:59.678Z,0.40
2023-01-17T01:19:44.905Z,0.35
2023-01-17T01:22:30.158Z,0.60
2023-01-17T01:25:15.382Z,0.50
2023-01-17T01:28:00.617Z,0.50
2023-01-17T01:30:47.332Z,0.40
2023-01-17T01:33:21.279Z,0.57
2023-01-17T01:35:50.596Z,0.43
2023-01-17T01:38:19.152Z,0.60
2023-01-17T01:40:48.913Z,1.15
2023-01-17T01:43:18.753Z,0.40
2023-01-17T01:45:53.096Z,0.52
2023-01-17T01:48:34.277Z,0.45
2023-01-17T01:51:05.035Z,0.50
2023-01-17T01:53:36.575Z,0.50
2023-01-17T01:56:06.836Z,0.40
2023-01-17T01:58:36.943Z,0.50
2023-01-17T02:01:09.316Z,0.93
2023-01-17T02:03:38.561Z,0.30
2023-01-17T02:06:20.428Z,0.32
2023-01-17T02:08:49.299Z,0.30
2023-01-17T02:11:17.072Z,0.32
2023-01-17T02:13:44.946Z,0.20
2023-01-17T02:16:30.903Z,0.43
2023-01-17T02:19:19.716Z,0.50
2023-01-17T02:22:02.556Z,0.67
2023-01-17T02:25:03.924Z,0.65
2023-01-17T02:27:46.178Z,0.70
2023-01-17T02:30:36.017Z,0.50
2023-01-17T02:33:18.917Z,0.40
2023-01-17T02:35:55.479Z,0.43
2023-01-17T02:38:32.431Z,0.20
2023-01-17T02:41:05.279Z,0.20
2023-01-17T02:43:34.716Z,0.40
2023-01-17T02:46:04.101Z,0.32
2023-01-17T02:48:34.273Z,0.30
2023-01-17T02:51:22.075Z,0.30
2023-01-17T02:54:04.618Z,0.38
2023-01-17T02:56:47.371Z,0.40
2023-01-17T02:59:29.072Z,0.43
2023-01-17T03:02:10.340Z,0.60
2023-01-17T03:04:42.348Z,0.30
2023-01-17T03:07:16.419Z,0.40
2023-01-17T03:09:46.384Z,0.60
2023-01-17T03:12:14.606Z,0.68
2023-01-17T03:14:42.423Z,0.70
2023-01-17T03:17:11.579Z,0.43
2023-01-17T03:19:39.275Z,0.40
2023-01-17T03:22:07.003Z,0.50
2023-01-17T03:24:34.769Z,0.30
2023-01-17T03:27:02.560Z,0.50
2023-01-17T03:29:30.334Z,0.40
2023-01-17T03:31:58.320Z,0.60
2023-01-17T03:34:27.522Z,0.43
2023-01-17T03:36:55.255Z,0.40
2023-01-17T03:39:23.028Z,0.30
2023-01-17T03:41:51.091Z,0.40
2023-01-17T03:44:19.213Z,0.30
2023-01-17T03:46:46.989Z,0.60
2023-01-17T03:49:15.090Z,0.60
2023-01-17T03:51:44.289Z,0.30
2023-01-17T03:54:12.107Z,0.30
2023-01-17T03:56:39.887Z,0.93
2023-01-17T03:59:07.592Z,0.30
2023-01-17T04:01:35.472Z,0.40
2023-01-17T04:04:03.343Z,0.47
2023-01-17T04:06:31.137Z,0.50
2023-01-17T04:09:00.333Z,0.93
2023-01-17T04:11:28.097Z,0.45
2023-01-17T04:13:56.209Z,0.50
2023-01-17T04:16:29.004Z,0.40
2023-01-17T04:18:57.403Z,0.50
2023-01-17T04:21:25.313Z,0.40
2023-01-17T04:23:53.187Z,1.35
2023-01-17T04:26:22.357Z,0.35
2023-01-17T04:28:50.416Z,0.30
2023-01-17T04:31:18.654Z,0.40
2023-01-17T04:33:46.454Z,0.50
2023-01-17T04:36:14.193Z,0.20
2023-01-17T04:38:42.650Z,0.30
2023-01-17T04:41:10.427Z,0.40
2023-01-17T04:43:39.728Z,0.40
2023-01-17T04:46:10.132Z,0.60
2023-01-17T04:48:38.256Z,0.40
2023-01-17T04:51:06.826Z,0.32
2023-01-17T04:53:34.681Z,0.53
2023-01-17T04:56:02.929Z,0.68
2023-01-17T04:58:31.200Z,0.38
2023-01-17T05:01:04.090Z,0.40
2023-01-17T05:03:32.536Z,0.30
2023-01-17T05:06:00.519Z,0.33
2023-01-17T05:08:28.414Z,0.52
2023-01-17T05:10:56.169Z,0.40
2023-01-17T05:13:24.189Z,0.30
2023-01-17T05:15:52.133Z,0.90
2023-01-17T05:18:21.367Z,0.40
2023-01-17T05:20:49.161Z,0.55
2023-01-17T05:23:16.995Z,0.40
2023-01-17T05:25:45.156Z,0.43
2023-01-17T05:28:13.972Z,0.60
2023-01-17T05:30:41.900Z,1.00
2023-01-17T05:33:10.234Z,0.90
2023-01-17T05:35:39.870Z,1.08
2023-01-17T05:38:07.631Z,0.80
2023-01-17T05:40:35.641Z,1.00
2023-01-17T05:43:04.162Z,0.63
2023-01-17T05:45:33.378Z,0.50
2023-01-17T05:48:01.501Z,0.50
2023-01-17T05:50:31.286Z,0.70
2023-01-17T05:53:02.597Z,0.60
2023-01-17T05:55:31.550Z,0.70
2023-01-17T05:57:59.805Z,0.40
2023-01-17T06:00:27.688Z,0.52
2023-01-17T06:02:56.835Z,0.63
2023-01-17T06:05:25.663Z,0.60
2023-01-17T06:07:53.663Z,0.40
2023-01-17T06:10:24.218Z,0.70
2023-01-17T06:13:01.800Z,0.50
2023-01-17T06:15:29.723Z,0.43
2023-01-17T06:17:57.475Z,0.40
2023-01-17T06:20:25.533Z,0.47
2023-01-17T06:22:55.292Z,0.43
2023-01-17T06:25:24.480Z,0.38
2023-01-17T06:27:54.723Z,0.50
2023-01-17T06:30:23.050Z,0.50
2023-01-17T06:32:53.735Z,0.27
2023-01-17T06:35:21.575Z,0.40
2023-01-17T06:37:51.966Z,0.47
2023-01-17T06:40:20.129Z,0.43
2023-01-17T06:42:49.410Z,0.50
2023-01-17T06:45:17.834Z,0.40
2023-01-17T06:47:46.124Z,0.77
2023-01-17T06:50:15.852Z,0.50
2023-01-17T06:52:44.310Z,0.50
2023-01-17T06:55:12.203Z,0.40
2023-01-17T06:57:39.939Z,0.40
2023-01-17T07:00:10.768Z,0.30
2023-01-17T07:02:38.531Z,0.40
2023-01-17T07:05:10.014Z,0.40
2023-01-17T07:07:37.850Z,0.30
2023-01-17T07:10:06.459Z,0.33
2023-01-17T07:12:34.248Z,0.50
2023-01-17T07:15:02.037Z,0.30
2023-01-17T07:17:31.219Z,0.40
2023-01-17T07:19:59.045Z,0.60
2023-01-17T07:22:26.833Z,0.50
2023-01-17T07:24:58.525Z,0.47
2023-01-17T07:27:27.795Z,0.50
2023-01-17T07:29:55.735Z,0.70
2023-01-17T07:32:23.562Z,0.30
2023-01-17T07:34:52.694Z,0.60
2023-01-17T07:37:20.950Z,0.50
2023-01-17T07:39:49.291Z,0.60
2023-01-17T07:42:17.162Z,0.40
2023-01-17T07:44:46.235Z,0.45
2023-01-17T07:47:14.094Z,0.40
2023-01-17T07:49:41.924Z,0.50
2023-01-17T07:52:11.042Z,0.40
2023-01-17T07:54:38.811Z,0.50
2023-01-17T07:57:06.625Z,0.43
2023-01-17T07:59:34.696Z,0.60
2023-01-17T08:02:02.524Z,0.60
2023-01-17T08:04:34.705Z,0.60
2023-01-17T08:07:03.329Z,0.35
2023-01-17T08:09:32.567Z,0.32
2023-01-17T08:12:00.320Z,0.40
2023-01-17T08:14:28.011Z,0.52
2023-01-17T08:16:55.778Z,0.60
2023-01-17T08:19:23.493Z,0.65
2023-01-17T08:21:51.227Z,0.70
2023-01-17T08:24:18.968Z,0.40
2023-01-17T08:26:48.107Z,0.40
2023-01-17T08:29:16.154Z,0.40
2023-01-17T08:31:43.987Z,0.43
2023-01-17T08:34:11.976Z,0.38
2023-01-17T08:36:39.711Z,0.30
2023-01-17T08:39:07.519Z,0.30
2023-01-17T08:41:35.900Z,0.40
2023-01-17T08:44:05.275Z,0.55
2023-01-17T08:46:33.247Z,0.40
2023-01-17T08:49:02.762Z,0.40
2023-01-17T08:51:32.392Z,0.50
2023-01-17T08:54:00.520Z,0.63
2023-01-17T08:56:28.380Z,0.65
2023-01-17T08:58:56.162Z,0.50
2023-01-17T09:01:28.130Z,0.33
2023-01-17T09:03:56.180Z,0.47
2023-01-17T09:06:24.101Z,0.57
2023-01-17T09:08:54.807Z,0.40
2023-01-17T09:11:22.635Z,0.85
2023-01-17T09:13:50.476Z,0.57
2023-01-17T09:16:18.484Z,0.40
2023-01-17T09:18:47.872Z,0.80
2023-01-17T09:21:17.551Z,0.43
2023-01-17T09:23:45.919Z,0.77
2023-01-17T09:26:19.286Z,0.80
2023-01-17T09:28:47.124Z,0.60
2023-01-17T09:31:17.286Z,0.70
2023-01-17T09:33:46.967Z,0.70
2023-01-17T09:36:14.894Z,0.50
2023-01-17T09:38:43.024Z,0.50
2023-01-17T09:41:27.447Z,0.55
2023-01-17T09:44:01.848Z,0.90
2023-01-17T09:46:33.376Z,0.43
2023-01-17T09:49:07.665Z,0.52
2023-01-17T09:51:35.766Z,0.50
2023-01-17T09:54:03.625Z,0.45
2023-01-17T09:56:36.247Z,0.40
2023-01-17T09:59:19.593Z,0.30
2023-01-17T10:01:55.690Z,0.40
2023-01-17T10:04:45.311Z,0.50
2023-01-17T10:07:29.446Z,0.47
2023-01-17T10:10:19.109Z,0.40
2023-01-17T10:12:54.809Z,0.50
2023-01-17T10:15:34.617Z,0.50
2023-01-17T10:18:29.655Z,0.30
2023-01-17T10:21:05.502Z,0.30
2023-01-17T10:23:56.041Z,0.50
2023-01-17T10:26:26.054Z,0.50
2023-01-17T10:29:00.502Z,0.57
2023-01-17T10:31:30.973Z,0.30
2023-01-17T10:34:05.753Z,0.50
2023-01-17T10:36:40.356Z,0.40
2023-01-17T10:39:17.095Z,0.30
2023-01-17T10:41:46.875Z,0.65
2023-01-17T10:44:20.613Z,0.30
2023-01-17T10:46:52.733Z,0.30
2023-01-17T10:49:24.202Z,0.40
2023-01-17T10:52:20.089Z,0.50
2023-01-17T10:54:56.491Z,0.30
2023-01-17T10:57:27.079Z,0.40
2023-01-17T11:00:00.904Z,0.60
2023-01-17T11:02:32.445Z,0.20
2023-01-17T11:05:11.550Z,0.50
2023-01-17T11:07:57.370Z,0.50
2023-01-17T11:10:40.345Z,0.40
2023-01-17T11:13:23.194Z,0.30
2023-01-17T11:15:53.808Z,0.25
2023-01-17T11:18:22.394Z,0.47
2023-01-17T11:20:50.790Z,0.30
2023-01-17T11:23:22.431Z,0.40
2023-01-17T11:25:52.037Z,0.30
2023-01-17T11:28:23.739Z,0.47
2023-01-17T11:30:56.641Z,0.43
2023-01-17T11:33:36.095Z,0.40
2023-01-17T11:36:03.902Z,0.30
2023-01-17T11:38:32.995Z,0.45
2023-01-17T11:41:20.264Z,0.38
2023-01-17T11:43:52.427Z,0.40
2023-01-17T11:46:20.882Z,0.40
2023-01-17T11:48:51.197Z,0.40
2023-01-17T11:51:23.649Z,0.35
2023-01-17T11:53:55.101Z,0.50
2023-01-17T11:56:34.096Z,0.40
2023-01-17T11:59:24.671Z,0.40
2023-01-17T12:02:04.208Z,0.40
2023-01-17T12:04:37.167Z,0.30
2023-01-17T12:07:21.148Z,0.40
2023-01-17T12:09:59.424Z,0.50
2023-01-17T12:12:56.247Z,0.50
2023-01-17T12:15:35.364Z,0.40
2023-01-17T12:18:18.319Z,0.35
2023-01-17T12:20:56.981Z,0.70
2023-01-17T12:23:43.925Z,0.52
2023-01-17T12:26:28.016Z,0.60
2023-01-17T12:29:25.809Z,0.50
2023-01-17T12:32:03.257Z,0.50
2023-01-17T12:34:35.353Z,1.20
2023-01-17T12:37:08.437Z,0.43
2023-01-17T12:39:40.756Z,0.40
2023-01-17T12:42:15.365Z,0.40
2023-01-17T12:44:52.444Z,0.57
2023-01-17T12:47:21.631Z,0.50
2023-01-17T12:49:56.441Z,0.40
2023-01-17T12:52:30.507Z,0.30
2023-01-17T12:55:03.574Z,0.50
2023-01-17T12:57:38.179Z,0.45
2023-01-17T13:00:12.367Z,0.47
2023-01-17T13:02:46.040Z,0.47
2023-01-17T13:05:23.600Z,0.32
2023-01-17T13:07:57.023Z,0.50
2023-01-17T13:10:32.096Z,0.40
2023-01-17T13:13:12.718Z,0.40
2023-01-17T13:15:42.960Z,0.55
2023-01-17T13:18:15.535Z,0.50
2023-01-17T13:21:04.672Z,0.50
2023-01-17T13:23:45.571Z,0.50
2023-01-17T13:26:21.665Z,0.40
2023-01-17T13:28:58.780Z,0.57
2023-01-17T13:31:39.674Z,0.50
2023-01-17T13:34:35.017Z,0.60
2023-01-17T13:37:25.280Z,0.40
2023-01-17T13:40:13.130Z,0.40
2023-01-17T13:42:54.598Z,0.40
2023-01-17T13:45:27.831Z,0.82
2023-01-17T13:48:25.647Z,0.40
2023-01-17T13:50:55.506Z,0.50
2023-01-17T13:53:48.400Z,0.50
2023-01-17T13:56:25.860Z,0.28
2023-01-17T13:59:03.091Z,0.50
2023-01-17T14:01:52.159Z,0.50
2023-01-17T14:04:20.460Z,0.40
2023-01-17T14:06:52.808Z,0.60
2023-01-17T14:09:25.387Z,0.40
2023-01-17T14:12:05.603Z,0.60
2023-01-17T14:14:49.766Z,0.50
2023-01-17T14:17:59.693Z,0.45
2023-01-17T14:20:52.962Z,0.30
2023-01-17T14:24:03.752Z,0.40
2023-01-17T14:26:43.136Z,0.40
2023-01-17T14:29:54.671Z,0.40
2023-01-17T14:32:24.373Z,0.40
2023-01-17T14:34:54.103Z,0.52
2023-01-17T14:37:29.033Z,0.50
2023-01-17T14:39:56.943Z,0.70
2023-01-17T14:42:27.053Z,0.60
2023-01-17T14:45:00.192Z,0.50
2023-01-17T14:47:31.544Z,0.52
2023-01-17T14:50:21.811Z,0.60
2023-01-17T14:52:52.222Z,0.70
2023-01-17T14:55:53.680Z,0.63
2023-01-17T14:58:28.273Z,0.70
2023-01-17T15:01:00.214Z,0.70
2023-01-17T15:03:29.921Z,0.50
2023-01-17T15:06:10.584Z,0.63
2023-01-17T15:08:38.705Z,0.53
2023-01-17T15:11:09.714Z,0.77
2023-01-17T15:13:44.801Z,0.65
2023-01-17T15:16:20.428Z,0.75
2023-01-17T15:18:49.029Z,0.50
2023-01-17T15:21:20.371Z,0.67
2023-01-17T15:23:51.434Z,0.52
2023-01-17T15:26:21.527Z,0.55
2023-01-17T15:28:50.504Z,0.80
2023-01-17T15:31:23.705Z,0.65
2023-01-17T15:33:56.544Z,0.93
2023-01-17T15:36:30.145Z,0.40
2023-01-17T15:39:01.727Z,0.50
2023-01-17T15:41:32.372Z,0.50
2023-01-17T15:44:00.779Z,0.70
2023-01-17T15:46:31.851Z,0.50
2023-01-17T15:49:17.887Z,0.52
2023-01-17T15:51:51.053Z,0.90
2023-01-17T15:54:36.423Z,0.68
2023-01-17T15:57:18.553Z,0.70
2023-01-17T15:59:49.076Z,0.90
2023-01-17T16:02:43.482Z,0.60
2023-01-17T16:05:35.228Z,0.73
2023-01-17T16:08:30.973Z,0.80
2023-01-17T16:11:02.133Z,0.80
2023-01-17T16:13:32.025Z,1.00
2023-01-17T16:16:14.538Z,0.85
2023-01-17T16:18:42.929Z,1.05
2023-01-17T16:21:20.918Z,1.15
2023-01-17T16:23:50.580Z,0.88
2023-01-17T16:26:18.782Z,0.67
2023-01-17T16:28:46.835Z,0.90
2023-01-17T16:31:14.803Z,0.93
2023-01-17T16:33:43.464Z,1.08
2023-01-17T16:36:14.942Z,0.90
2023-01-17T16:38:43.292Z,1.10
2023-01-17T16:41:12.482Z,0.82
2023-01-17T16:43:41.061Z,1.10
2023-01-17T16:46:10.889Z,1.30
2023-01-17T16:48:39.551Z,1.15
2023-01-17T16:51:08.601Z,1.30
2023-01-17T16:53:37.498Z,1.30
2023-01-17T16:56:11.923Z,1.90
2023-01-17T16:58:41.551Z,2.20
2023-01-17T17:01:10.788Z,2.88
2023-01-17T17:03:38.582Z,1.73
2023-01-17T17:06:06.783Z,1.20
2023-01-17T17:08:35.032Z,1.40
2023-01-17T17:11:14.567Z,1.38
2023-01-17T17:13:45.630Z,1.50
2023-01-17T17:16:16.173Z,1.10
2023-01-17T17:18:44.768Z,1.30
2023-01-17T17:21:12.779Z,1.20
2023-01-17T17:23:40.772Z,1.23
2023-01-17T17:26:08.659Z,1.30
2023-01-17T17:28:36.792Z,2.40
2023-01-17T17:31:10.357Z,4.53
2023-01-17T17:33:38.791Z,3.22
2023-01-17T17:36:10.081Z,4.53
2023-01-17T17:38:38.236Z,3.03
2023-01-17T17:41:09.353Z,2.20
2023-01-17T17:43:38.599Z,1.60
2023-01-17T17:46:08.382Z,1.50
2023-01-17T17:48:36.464Z,1.60
2023-01-17T17:51:05.344Z,1.58
2023-01-17T17:53:33.502Z,1.40
2023-01-17T17:56:05.918Z,1.55
2023-01-17T17:58:35.492Z,1.73
2023-01-17T18:01:05.579Z,1.70
2023-01-17T18:03:35.001Z,1.95
2023-01-17T18:06:05.128Z,1.67
2023-01-17T18:08:33.822Z,1.95
2023-01-17T18:11:02.663Z,2.03
2023-01-17T18:13:31.737Z,2.33
2023-01-17T18:16:07.821Z,2.20
2023-01-17T18:18:38.981Z,2.63
2023-01-17T18:21:09.561Z,2.25
2023-01-17T18:23:39.704Z,3.22
2023-01-17T18:26:07.924Z,3.22
2023-01-17T18:28:35.708Z,3.00
2023-01-17T18:31:07.819Z,3.10
2023-01-17T18:33:38.585Z,3.05
2023-01-17T18:36:07.701Z,2.75
2023-01-17T18:38:39.442Z,2.60
2023-01-17T18:41:08.469Z,2.50
2023-01-17T18:43:36.647Z,3.10
2023-01-17T18:46:04.912Z,2.80
2023-01-17T18:48:32.851Z,3.72
2023-01-17T18:51:03.288Z,3.60
2023-01-17T18:53:32.292Z,3.63
2023-01-17T18:56:01.593Z,4.27
2023-01-17T18:58:31.130Z,3.50
2023-01-17T19:01:07.808Z,3.88
2023-01-17T19:03:35.649Z,6.25
2023-01-17T19:06:06.126Z,4.43
2023-01-17T19:08:35.396Z,2.43
2023-01-17T19:11:04.257Z,2.83
2023-01-17T19:13:32.692Z,2.50
2023-01-17T19:16:01.248Z,1.80
2023-01-17T19:18:29.082Z,2.35
2023-01-17T19:20:57.331Z,1.67
2023-01-17T19:23:26.768Z,1.50
2023-01-17T19:25:55.666Z,1.60
2023-01-17T19:28:23.630Z,1.65
2023-01-17T19:31:01.692Z,2.15
2023-01-17T19:33:29.540Z,1.50
2023-01-17T19:35:59.893Z,2.08
2023-01-17T19:38:29.088Z,2.03
2023-01-17T19:40:56.881Z,2.03
2023-01-17T19:43:25.314Z,2.30
2023-01-17T19:45:58.424Z,1.70
2023-01-17T19:48:26.418Z,1.73
2023-01-17T19:50:54.459Z,1.60
2023-01-17T19:53:22.504Z,2.05
2023-01-17T19:55:51.717Z,2.20
2023-01-17T19:58:19.603Z,1.77
2023-01-17T20:00:47.459Z,2.75
2023-01-17T20:03:15.288Z,2.05
2023-01-17T20:05:43.012Z,2.00
2023-01-17T20:08:10.782Z,1.90
2023-01-17T20:10:38.502Z,1.97
2023-01-17T20:13:07.696Z,1.90
2023-01-17T20:15:35.449Z,1.98
2023-01-17T20:18:03.467Z,2.53
2023-01-17T20:20:32.472Z,2.45
2023-01-17T20:23:01.311Z,2.40
2023-01-17T20:25:29.116Z,2.85
2023-01-17T20:27:57.244Z,3.50
2023-01-17T20:30:30.029Z,2.70
2023-01-17T20:32:57.894Z,3.35
2023-01-17T20:35:25.771Z,2.47
2023-01-17T20:37:53.596Z,2.10
2023-01-17T20:40:21.356Z,1.65
2023-01-17T20:42:49.131Z,1.50
2023-01-17T20:45:17.201Z,1.55
2023-01-17T20:47:46.318Z,1.47
2023-01-17T20:50:14.075Z,1.67
2023-01-17T20:52:41.832Z,1.30
2023-01-17T20:55:10.096Z,1.02
2023-01-17T20:57:38.201Z,1.48
2023-01-17T21:00:07.419Z,1.27
2023-01-17T21:02:35.266Z,1.23
2023-01-17T21:05:04.994Z,1.38
2023-01-17T21:07:32.864Z,1.45
2023-01-17T21:10:01.141Z,1.50
2023-01-17T21:12:29.452Z,1.10
2023-01-17T21:14:57.318Z,1.20
2023-01-17T21:17:25.301Z,1.20
2023-01-17T21:19:52.983Z,1.40
2023-01-17T21:22:22.290Z,1.20
2023-01-17T21:24:50.092Z,1.20
2023-01-17T21:27:17.983Z,1.25
2023-01-17T21:29:45.936Z,1.40
2023-01-17T21:32:13.778Z,1.40
2023-01-17T21:34:41.558Z,1.40
2023-01-17T21:37:09.390Z,1.03
2023-01-17T21:39:39.510Z,1.52
2023-01-17T21:42:07.337Z,1.38
2023-01-17T21:44:36.424Z,1.52
2023-01-17T21:47:04.560Z,1.60
2023-01-17T21:49:32.502Z,1.80
2023-01-17T21:52:18.113Z,1.40
2023-01-17T21:55:04.720Z,1.80
2023-01-17T21:57:50.164Z,1.60
2023-01-17T22:00:18.817Z,1.73
2023-01-17T22:02:48.504Z,1.67
2023-01-17T22:05:17.967Z,1.92
2023-01-17T22:08:00.164Z,1.60
2023-01-17T22:10:29.752Z,1.77
2023-01-17T22:12:57.661Z,1.52
2023-01-17T22:15:25.594Z,1.87
2023-01-17T22:17:53.451Z,1.98
2023-01-17T22:20:21.700Z,2.38
2023-01-17T22:22:49.464Z,2.22
2023-01-17T22:25:17.480Z,2.25
2023-01-17T22:27:46.632Z,2.37
2023-01-17T22:30:14.934Z,1.88
2023-01-17T22:32:42.691Z,2.10
2023-01-17T22:35:10.709Z,2.00
2023-01-17T22:37:38.526Z,2.22
2023-01-17T22:40:09.955Z,2.27
2023-01-17T22:42:37.762Z,1.95
2023-01-17T22:45:10.251Z,2.08
2023-01-17T22:47:38.426Z,2.00
2023-01-17T22:50:08.940Z,1.92
2023-01-17T22:52:36.846Z,2.17
2023-01-17T22:55:05.908Z,2.45
2023-01-17T22:57:33.934Z,1.90
2023-01-17T23:00:01.716Z,2.03
2023-01-17T23:02:30.895Z,1.80
2023-01-17T23:04:58.760Z,1.97
2023-01-17T23:07:26.983Z,2.10
2023-01-17T23:09:54.814Z,2.00
2023-01-17T23:12:22.576Z,2.08
2023-01-17T23:15:07.872Z,2.03
2023-01-17T23:17:54.389Z,1.53
2023-01-17T23:20:22.258Z,1.60
2023-01-17T23:22:49.955Z,1.55
2023-01-17T23:25:17.972Z,1.15
2023-01-17T23:28:04.940Z,1.20
2023-01-17T23:30:35.448Z,1.20
2023-01-17T23:33:06.821Z,1.40
2023-01-17T23:35:41.273Z,1.67
2023-01-17T23:38:29.940Z,1.40
2023-01-17T23:41:20.232Z,1.75
2023-01-17T23:43:51.794Z,1.53
2023-01-17T23:46:19.701Z,1.65
2023-01-17T23:48:49.122Z,1.45
2023-01-17T23:51:16.956Z,1.50
2023-01-17T23:53:44.957Z,3.15
2023-01-17T23:56:18.026Z,2.77
2023-01-17T23:58:45.904Z,2.03
